sensor_id;sensor_type;location;lat;lon;timestamp;P1;durP1;ratioP1;P2;durP2;ratioP2
16117;SDS011;8163;50.118;5.342;2023-02-20T00:01:23;9.05;;;4.25;;
16117;SDS011;8163;50.118;5.342;2023-02-20T00:03:50;11.38;;;4.38;;
16117;SDS011;8163;50.118;5.342;2023-02-20T00:06:17;12.45;;;5.32;;
16117;SDS011;8163;50.118;5.342;2023-02-20T00:08:45;10.95;;;4.82;;
16117;SDS011;8163;50.118;5.342;2023-02-20T00:11:13;9.57;;;3.78;;
16117;SDS011;8163;50.118;5.342;2023-02-20T00:13:43;6.50;;;4.25;;
16117;SDS011;8163;50.118;5.342;2023-02-20T00:16:11;13.85;;;4.25;;
16117;SDS011;8163;50.118;5.342;2023-02-20T00:18:38;7.78;;;4.70;;
16117;SDS011;8163;50.118;5.342;2023-02-20T00:21:05;9.50;;;4.45;;
16117;SDS011;8163;50.118;5.342;2023-02-20T00:23:32;8.52;;;4.95;;
16117;SDS011;8163;50.118;5.342;2023-02-20T00:26:01;7.07;;;4.38;;
16117;SDS011;8163;50.118;5.342;2023-02-20T00:28:28;6.35;;;4.22;;
16117;SDS011;8163;50.118;5.342;2023-02-20T00:30:56;6.93;;;4.72;;
16117;SDS011;8163;50.118;5.342;2023-02-20T00:33:23;8.93;;;4.22;;
16117;SDS011;8163;50.118;5.342;2023-02-20T00:35:50;10.30;;;4.30;;
16117;SDS011;8163;50.118;5.342;2023-02-20T00:38:17;12.73;;;4.63;;
16117;SDS011;8163;50.118;5.342;2023-02-20T00:40:44;9.35;;;4.20;;
16117;SDS011;8163;50.118;5.342;2023-02-20T00:43:12;12.30;;;4.18;;
16117;SDS011;8163;50.118;5.342;2023-02-20T00:45:39;8.07;;;4.13;;
16117;SDS011;8163;50.118;5.342;2023-02-20T00:48:07;6.68;;;4.63;;
16117;SDS011;8163;50.118;5.342;2023-02-20T00:50:34;8.35;;;3.97;;
16117;SDS011;8163;50.118;5.342;2023-02-20T00:53:01;11.02;;;4.05;;
16117;SDS011;8163;50.118;5.342;2023-02-20T00:55:28;8.52;;;4.40;;
16117;SDS011;8163;50.118;5.342;2023-02-20T00:57:55;5.57;;;3.58;;
16117;SDS011;8163;50.118;5.342;2023-02-20T01:00:24;6.78;;;4.47;;
16117;SDS011;8163;50.118;5.342;2023-02-20T01:02:53;9.35;;;4.18;;
16117;SDS011;8163;50.118;5.342;2023-02-20T01:05:20;6.57;;;3.97;;
16117;SDS011;8163;50.118;5.342;2023-02-20T01:07:47;5.47;;;3.67;;
16117;SDS011;8163;50.118;5.342;2023-02-20T01:10:14;8.45;;;4.20;;
16117;SDS011;8163;50.118;5.342;2023-02-20T01:12:41;8.57;;;4.00;;
16117;SDS011;8163;50.118;5.342;2023-02-20T01:15:10;7.63;;;4.20;;
16117;SDS011;8163;50.118;5.342;2023-02-20T01:17:39;5.50;;;4.15;;
16117;SDS011;8163;50.118;5.342;2023-02-20T01:20:06;6.13;;;3.78;;
16117;SDS011;8163;50.118;5.342;2023-02-20T01:22:34;7.95;;;3.60;;
16117;SDS011;8163;50.118;5.342;2023-02-20T01:25:00;8.02;;;3.63;;
16117;SDS011;8163;50.118;5.342;2023-02-20T01:27:27;4.78;;;4.00;;
16117;SDS011;8163;50.118;5.342;2023-02-20T01:29:54;8.25;;;3.80;;
16117;SDS011;8163;50.118;5.342;2023-02-20T01:32:21;7.15;;;3.47;;
16117;SDS011;8163;50.118;5.342;2023-02-20T01:34:49;7.10;;;3.25;;
16117;SDS011;8163;50.118;5.342;2023-02-20T01:37:16;6.88;;;4.43;;
16117;SDS011;8163;50.118;5.342;2023-02-20T01:39:45;8.60;;;3.53;;
16117;SDS011;8163;50.118;5.342;2023-02-20T01:42:13;9.43;;;3.67;;
16117;SDS011;8163;50.118;5.342;2023-02-20T01:44:44;8.50;;;3.65;;
16117;SDS011;8163;50.118;5.342;2023-02-20T01:47:11;8.95;;;3.45;;
16117;SDS011;8163;50.118;5.342;2023-02-20T01:49:43;11.20;;;3.60;;
16117;SDS011;8163;50.118;5.342;2023-02-20T01:52:14;14.05;;;4.00;;
16117;SDS011;8163;50.118;5.342;2023-02-20T01:54:46;9.50;;;4.32;;
16117;SDS011;8163;50.118;5.342;2023-02-20T01:57:17;7.90;;;3.88;;
16117;SDS011;8163;50.118;5.342;2023-02-20T01:59:48;10.60;;;3.97;;
16117;SDS011;8163;50.118;5.342;2023-02-20T02:02:17;7.18;;;3.47;;
16117;SDS011;8163;50.118;5.342;2023-02-20T02:04:45;9.65;;;4.25;;
16117;SDS011;8163;50.118;5.342;2023-02-20T02:07:16;13.35;;;4.63;;
16117;SDS011;8163;50.118;5.342;2023-02-20T02:09:46;10.45;;;3.83;;
16117;SDS011;8163;50.118;5.342;2023-02-20T02:12:17;9.23;;;4.07;;
16117;SDS011;8163;50.118;5.342;2023-02-20T02:14:44;9.73;;;4.65;;
16117;SDS011;8163;50.118;5.342;2023-02-20T02:17:24;13.90;;;4.72;;
16117;SDS011;8163;50.118;5.342;2023-02-20T02:20:17;11.52;;;4.50;;
16117;SDS011;8163;50.118;5.342;2023-02-20T02:26:10;14.07;;;5.25;;
16117;SDS011;8163;50.118;5.342;2023-02-20T02:29:00;14.70;;;5.72;;
16117;SDS011;8163;50.118;5.342;2023-02-20T02:34:59;8.65;;;5.40;;
16117;SDS011;8163;50.118;5.342;2023-02-20T02:37:51;14.38;;;6.03;;
16117;SDS011;8163;50.118;5.342;2023-02-20T02:40:29;16.92;;;6.60;;
16117;SDS011;8163;50.118;5.342;2023-02-20T02:43:05;12.88;;;6.93;;
16117;SDS011;8163;50.118;5.342;2023-02-20T02:45:37;19.15;;;6.65;;
16117;SDS011;8163;50.118;5.342;2023-02-20T02:48:12;9.95;;;6.05;;
16117;SDS011;8163;50.118;5.342;2023-02-20T02:50:44;16.35;;;7.22;;
16117;SDS011;8163;50.118;5.342;2023-02-20T02:53:15;15.13;;;7.55;;
16117;SDS011;8163;50.118;5.342;2023-02-20T02:55:42;16.58;;;7.28;;
16117;SDS011;8163;50.118;5.342;2023-02-20T02:58:08;12.98;;;6.57;;
16117;SDS011;8163;50.118;5.342;2023-02-20T03:00:38;12.88;;;8.02;;
16117;SDS011;8163;50.118;5.342;2023-02-20T03:03:09;13.75;;;7.18;;
16117;SDS011;8163;50.118;5.342;2023-02-20T03:05:42;18.80;;;9.32;;
16117;SDS011;8163;50.118;5.342;2023-02-20T03:08:20;14.52;;;7.28;;
16117;SDS011;8163;50.118;5.342;2023-02-20T03:10:59;11.50;;;8.20;;
16117;SDS011;8163;50.118;5.342;2023-02-20T03:13:31;11.82;;;8.02;;
16117;SDS011;8163;50.118;5.342;2023-02-20T03:16:20;8.98;;;7.15;;
16117;SDS011;8163;50.118;5.342;2023-02-20T03:18:54;14.55;;;7.95;;
16117;SDS011;8163;50.118;5.342;2023-02-20T03:21:26;18.30;;;7.97;;
16117;SDS011;8163;50.118;5.342;2023-02-20T03:23:58;13.88;;;7.45;;
16117;SDS011;8163;50.118;5.342;2023-02-20T03:26:30;16.90;;;7.85;;
16117;SDS011;8163;50.118;5.342;2023-02-20T03:29:01;12.75;;;7.00;;
16117;SDS011;8163;50.118;5.342;2023-02-20T03:31:36;20.05;;;8.70;;
16117;SDS011;8163;50.118;5.342;2023-02-20T03:34:08;14.63;;;7.65;;
16117;SDS011;8163;50.118;5.342;2023-02-20T03:36:56;10.05;;;6.45;;
16117;SDS011;8163;50.118;5.342;2023-02-20T03:39:47;17.65;;;7.43;;
16117;SDS011;8163;50.118;5.342;2023-02-20T03:42:35;15.50;;;7.80;;
16117;SDS011;8163;50.118;5.342;2023-02-20T03:45:23;21.27;;;8.88;;
16117;SDS011;8163;50.118;5.342;2023-02-20T03:47:54;17.27;;;7.93;;
16117;SDS011;8163;50.118;5.342;2023-02-20T03:50:24;13.77;;;7.10;;
16117;SDS011;8163;50.118;5.342;2023-02-20T03:53:09;16.27;;;8.38;;
16117;SDS011;8163;50.118;5.342;2023-02-20T03:55:37;15.68;;;9.30;;
16117;SDS011;8163;50.118;5.342;2023-02-20T03:58:06;16.35;;;7.18;;
16117;SDS011;8163;50.118;5.342;2023-02-20T04:00:38;14.38;;;6.85;;
16117;SDS011;8163;50.118;5.342;2023-02-20T04:03:11;13.07;;;7.70;;
16117;SDS011;8163;50.118;5.342;2023-02-20T04:05:43;17.25;;;7.65;;
16117;SDS011;8163;50.118;5.342;2023-02-20T04:08:14;14.85;;;9.20;;
16117;SDS011;8163;50.118;5.342;2023-02-20T04:10:47;12.38;;;7.03;;
16117;SDS011;8163;50.118;5.342;2023-02-20T04:13:17;17.55;;;6.57;;
16117;SDS011;8163;50.118;5.342;2023-02-20T04:15:46;15.13;;;7.03;;
16117;SDS011;8163;50.118;5.342;2023-02-20T04:18:16;15.82;;;8.00;;
16117;SDS011;8163;50.118;5.342;2023-02-20T04:20:45;20.02;;;8.65;;
16117;SDS011;8163;50.118;5.342;2023-02-20T04:23:16;13.52;;;8.43;;
16117;SDS011;8163;50.118;5.342;2023-02-20T04:25:46;18.17;;;7.60;;
16117;SDS011;8163;50.118;5.342;2023-02-20T04:28:16;13.52;;;6.20;;
16117;SDS011;8163;50.118;5.342;2023-02-20T04:30:44;15.80;;;9.45;;
16117;SDS011;8163;50.118;5.342;2023-02-20T04:33:11;18.17;;;8.15;;
16117;SDS011;8163;50.118;5.342;2023-02-20T04:35:40;17.98;;;7.88;;
16117;SDS011;8163;50.118;5.342;2023-02-20T04:38:08;14.25;;;8.10;;
16117;SDS011;8163;50.118;5.342;2023-02-20T04:40:36;8.85;;;7.00;;
16117;SDS011;8163;50.118;5.342;2023-02-20T04:43:05;16.08;;;7.28;;
16117;SDS011;8163;50.118;5.342;2023-02-20T04:45:35;11.90;;;7.05;;
16117;SDS011;8163;50.118;5.342;2023-02-20T04:48:02;18.63;;;8.57;;
16117;SDS011;8163;50.118;5.342;2023-02-20T04:50:30;15.50;;;7.28;;
16117;SDS011;8163;50.118;5.342;2023-02-20T04:52:59;14.57;;;7.90;;
16117;SDS011;8163;50.118;5.342;2023-02-20T04:55:27;18.48;;;8.25;;
16117;SDS011;8163;50.118;5.342;2023-02-20T04:57:56;18.75;;;8.20;;
16117;SDS011;8163;50.118;5.342;2023-02-20T05:00:24;23.17;;;9.23;;
16117;SDS011;8163;50.118;5.342;2023-02-20T05:02:52;18.40;;;8.40;;
16117;SDS011;8163;50.118;5.342;2023-02-20T05:05:20;18.15;;;9.80;;
16117;SDS011;8163;50.118;5.342;2023-02-20T05:07:48;11.23;;;7.57;;
16117;SDS011;8163;50.118;5.342;2023-02-20T05:10:19;17.45;;;9.18;;
16117;SDS011;8163;50.118;5.342;2023-02-20T05:12:47;18.60;;;9.43;;
16117;SDS011;8163;50.118;5.342;2023-02-20T05:15:16;16.20;;;9.77;;
16117;SDS011;8163;50.118;5.342;2023-02-20T05:17:45;14.18;;;8.27;;
16117;SDS011;8163;50.118;5.342;2023-02-20T05:20:13;14.23;;;7.90;;
16117;SDS011;8163;50.118;5.342;2023-02-20T05:22:43;11.05;;;7.78;;
16117;SDS011;8163;50.118;5.342;2023-02-20T05:25:09;12.98;;;7.50;;
16117;SDS011;8163;50.118;5.342;2023-02-20T05:27:38;12.02;;;7.70;;
16117;SDS011;8163;50.118;5.342;2023-02-20T05:30:07;14.82;;;8.25;;
16117;SDS011;8163;50.118;5.342;2023-02-20T05:32:38;15.05;;;9.20;;
16117;SDS011;8163;50.118;5.342;2023-02-20T05:35:07;16.15;;;7.72;;
16117;SDS011;8163;50.118;5.342;2023-02-20T05:37:34;18.90;;;8.65;;
16117;SDS011;8163;50.118;5.342;2023-02-20T05:40:01;14.85;;;8.77;;
16117;SDS011;8163;50.118;5.342;2023-02-20T05:42:29;14.13;;;9.25;;
16117;SDS011;8163;50.118;5.342;2023-02-20T05:44:56;15.20;;;8.98;;
16117;SDS011;8163;50.118;5.342;2023-02-20T05:47:26;10.10;;;8.15;;
16117;SDS011;8163;50.118;5.342;2023-02-20T05:49:55;15.27;;;8.82;;
16117;SDS011;8163;50.118;5.342;2023-02-20T05:52:23;14.18;;;8.05;;
16117;SDS011;8163;50.118;5.342;2023-02-20T05:54:50;8.75;;;7.25;;
16117;SDS011;8163;50.118;5.342;2023-02-20T05:57:17;14.25;;;9.10;;
16117;SDS011;8163;50.118;5.342;2023-02-20T05:59:44;17.05;;;8.75;;
16117;SDS011;8163;50.118;5.342;2023-02-20T06:02:11;20.55;;;9.98;;
16117;SDS011;8163;50.118;5.342;2023-02-20T06:04:38;18.10;;;8.98;;
16117;SDS011;8163;50.118;5.342;2023-02-20T06:07:06;16.15;;;8.30;;
16117;SDS011;8163;50.118;5.342;2023-02-20T06:09:36;13.40;;;9.30;;
16117;SDS011;8163;50.118;5.342;2023-02-20T06:12:06;14.80;;;7.93;;
16117;SDS011;8163;50.118;5.342;2023-02-20T06:14:33;17.85;;;9.13;;
16117;SDS011;8163;50.118;5.342;2023-02-20T06:17:00;20.20;;;9.50;;
16117;SDS011;8163;50.118;5.342;2023-02-20T06:19:27;16.02;;;10.25;;
16117;SDS011;8163;50.118;5.342;2023-02-20T06:21:54;12.65;;;9.90;;
16117;SDS011;8163;50.118;5.342;2023-02-20T06:24:22;21.95;;;9.00;;
16117;SDS011;8163;50.118;5.342;2023-02-20T06:26:51;16.20;;;9.23;;
16117;SDS011;8163;50.118;5.342;2023-02-20T06:29:18;14.55;;;9.55;;
16117;SDS011;8163;50.118;5.342;2023-02-20T06:31:45;16.90;;;8.90;;
16117;SDS011;8163;50.118;5.342;2023-02-20T06:34:13;20.92;;;8.43;;
16117;SDS011;8163;50.118;5.342;2023-02-20T06:36:40;14.95;;;10.05;;
16117;SDS011;8163;50.118;5.342;2023-02-20T06:39:08;18.10;;;9.77;;
16117;SDS011;8163;50.118;5.342;2023-02-20T06:41:37;17.23;;;10.52;;
16117;SDS011;8163;50.118;5.342;2023-02-20T06:44:06;16.95;;;8.90;;
16117;SDS011;8163;50.118;5.342;2023-02-20T06:46:33;16.02;;;10.95;;
16117;SDS011;8163;50.118;5.342;2023-02-20T06:49:00;17.10;;;10.23;;
16117;SDS011;8163;50.118;5.342;2023-02-20T06:51:28;17.55;;;10.35;;
16117;SDS011;8163;50.118;5.342;2023-02-20T06:53:57;19.65;;;11.55;;
16117;SDS011;8163;50.118;5.342;2023-02-20T06:56:26;15.52;;;9.98;;
16117;SDS011;8163;50.118;5.342;2023-02-20T06:58:55;20.52;;;11.57;;
16117;SDS011;8163;50.118;5.342;2023-02-20T07:01:25;13.27;;;9.68;;
16117;SDS011;8163;50.118;5.342;2023-02-20T07:03:53;20.02;;;11.73;;
16117;SDS011;8163;50.118;5.342;2023-02-20T07:06:22;20.83;;;12.45;;
16117;SDS011;8163;50.118;5.342;2023-02-20T07:08:50;19.85;;;10.98;;
16117;SDS011;8163;50.118;5.342;2023-02-20T07:11:18;21.63;;;11.48;;
16117;SDS011;8163;50.118;5.342;2023-02-20T07:13:46;14.82;;;10.05;;
16117;SDS011;8163;50.118;5.342;2023-02-20T07:16:15;11.60;;;8.98;;
16117;SDS011;8163;50.118;5.342;2023-02-20T07:18:44;15.82;;;9.07;;
16117;SDS011;8163;50.118;5.342;2023-02-20T07:21:10;11.68;;;8.70;;
16117;SDS011;8163;50.118;5.342;2023-02-20T07:23:37;9.23;;;7.97;;
16117;SDS011;8163;50.118;5.342;2023-02-20T07:26:05;11.60;;;8.90;;
16117;SDS011;8163;50.118;5.342;2023-02-20T07:31:02;9.93;;;7.38;;
16117;SDS011;8163;50.118;5.342;2023-02-20T07:33:30;11.43;;;7.75;;
16117;SDS011;8163;50.118;5.342;2023-02-20T07:35:59;10.13;;;7.97;;
16117;SDS011;8163;50.118;5.342;2023-02-20T07:38:26;10.30;;;7.32;;
16117;SDS011;8163;50.118;5.342;2023-02-20T07:40:53;8.20;;;7.18;;
16117;SDS011;8163;50.118;5.342;2023-02-20T07:43:20;10.63;;;7.35;;
16117;SDS011;8163;50.118;5.342;2023-02-20T07:45:47;9.40;;;7.47;;
16117;SDS011;8163;50.118;5.342;2023-02-20T07:48:15;9.23;;;7.72;;
16117;SDS011;8163;50.118;5.342;2023-02-20T07:50:44;9.45;;;7.55;;
16117;SDS011;8163;50.118;5.342;2023-02-20T07:53:14;8.90;;;7.55;;
16117;SDS011;8163;50.118;5.342;2023-02-20T07:55:42;9.60;;;7.20;;
16117;SDS011;8163;50.118;5.342;2023-02-20T07:58:09;10.65;;;7.88;;
16117;SDS011;8163;50.118;5.342;2023-02-20T08:00:36;7.65;;;6.93;;
16117;SDS011;8163;50.118;5.342;2023-02-20T08:03:03;11.43;;;7.85;;
16117;SDS011;8163;50.118;5.342;2023-02-20T08:05:31;8.57;;;7.32;;
16117;SDS011;8163;50.118;5.342;2023-02-20T08:07:58;8.07;;;6.57;;
16117;SDS011;8163;50.118;5.342;2023-02-20T08:10:27;6.97;;;6.28;;
16117;SDS011;8163;50.118;5.342;2023-02-20T08:12:54;7.50;;;6.40;;
16117;SDS011;8163;50.118;5.342;2023-02-20T08:15:22;7.88;;;6.60;;
16117;SDS011;8163;50.118;5.342;2023-02-20T08:17:49;7.90;;;6.03;;
16117;SDS011;8163;50.118;5.342;2023-02-20T08:20:17;8.48;;;6.55;;
16117;SDS011;8163;50.118;5.342;2023-02-20T08:22:51;9.75;;;6.18;;
16117;SDS011;8163;50.118;5.342;2023-02-20T08:25:18;7.63;;;6.20;;
16117;SDS011;8163;50.118;5.342;2023-02-20T08:27:49;10.38;;;7.03;;
16117;SDS011;8163;50.118;5.342;2023-02-20T08:30:28;7.55;;;6.28;;
16117;SDS011;8163;50.118;5.342;2023-02-20T08:32:55;8.18;;;6.03;;
16117;SDS011;8163;50.118;5.342;2023-02-20T08:35:22;7.80;;;6.07;;
16117;SDS011;8163;50.118;5.342;2023-02-20T08:37:49;7.60;;;6.53;;
16117;SDS011;8163;50.118;5.342;2023-02-20T08:40:17;6.70;;;6.10;;
16117;SDS011;8163;50.118;5.342;2023-02-20T08:42:44;10.02;;;6.38;;
16117;SDS011;8163;50.118;5.342;2023-02-20T08:45:15;6.45;;;5.82;;
16117;SDS011;8163;50.118;5.342;2023-02-20T08:47:43;6.93;;;6.10;;
16117;SDS011;8163;50.118;5.342;2023-02-20T08:50:12;6.40;;;5.80;;
16117;SDS011;8163;50.118;5.342;2023-02-20T08:52:40;8.05;;;6.63;;
16117;SDS011;8163;50.118;5.342;2023-02-20T08:55:08;7.45;;;6.85;;
16117;SDS011;8163;50.118;5.342;2023-02-20T08:57:35;7.00;;;6.30;;
16117;SDS011;8163;50.118;5.342;2023-02-20T09:00:03;6.40;;;5.80;;
16117;SDS011;8163;50.118;5.342;2023-02-20T09:02:32;7.50;;;6.90;;
16117;SDS011;8163;50.118;5.342;2023-02-20T09:04:59;8.63;;;7.93;;
16117;SDS011;8163;50.118;5.342;2023-02-20T09:07:28;9.40;;;6.97;;
16117;SDS011;8163;50.118;5.342;2023-02-20T09:09:55;7.07;;;6.35;;
16117;SDS011;8163;50.118;5.342;2023-02-20T09:12:22;8.10;;;7.40;;
16117;SDS011;8163;50.118;5.342;2023-02-20T09:14:50;7.40;;;6.75;;
16117;SDS011;8163;50.118;5.342;2023-02-20T09:17:17;7.45;;;6.78;;
16117;SDS011;8163;50.118;5.342;2023-02-20T09:19:45;7.78;;;7.03;;
16117;SDS011;8163;50.118;5.342;2023-02-20T09:22:13;6.85;;;5.97;;
16117;SDS011;8163;50.118;5.342;2023-02-20T09:24:40;8.27;;;6.00;;
16117;SDS011;8163;50.118;5.342;2023-02-20T09:27:07;7.63;;;5.60;;
16117;SDS011;8163;50.118;5.342;2023-02-20T09:29:34;12.07;;;10.85;;
16117;SDS011;8163;50.118;5.342;2023-02-20T09:32:05;6.55;;;5.75;;
16117;SDS011;8163;50.118;5.342;2023-02-20T09:34:33;8.45;;;7.57;;
16117;SDS011;8163;50.118;5.342;2023-02-20T09:37:02;6.78;;;5.70;;
16117;SDS011;8163;50.118;5.342;2023-02-20T09:39:30;7.40;;;5.85;;
16117;SDS011;8163;50.118;5.342;2023-02-20T09:42:04;5.50;;;5.00;;
16117;SDS011;8163;50.118;5.342;2023-02-20T09:44:42;6.50;;;5.88;;
16117;SDS011;8163;50.118;5.342;2023-02-20T09:47:35;5.70;;;5.10;;
16117;SDS011;8163;50.118;5.342;2023-02-20T09:50:11;23.38;;;17.60;;
16117;SDS011;8163;50.118;5.342;2023-02-20T09:52:43;6.50;;;5.15;;
16117;SDS011;8163;50.118;5.342;2023-02-20T09:55:18;5.75;;;5.22;;
16117;SDS011;8163;50.118;5.342;2023-02-20T09:57:48;5.80;;;5.25;;
16117;SDS011;8163;50.118;5.342;2023-02-20T10:00:20;18.48;;;8.55;;
16117;SDS011;8163;50.118;5.342;2023-02-20T10:02:56;10.00;;;6.82;;
16117;SDS011;8163;50.118;5.342;2023-02-20T10:05:38;7.00;;;5.57;;
16117;SDS011;8163;50.118;5.342;2023-02-20T10:08:08;6.32;;;5.78;;
16117;SDS011;8163;50.118;5.342;2023-02-20T10:10:37;5.85;;;5.35;;
16117;SDS011;8163;50.118;5.342;2023-02-20T10:13:06;5.95;;;5.28;;
16117;SDS011;8163;50.118;5.342;2023-02-20T10:15:48;5.82;;;4.72;;
16117;SDS011;8163;50.118;5.342;2023-02-20T10:18:26;5.90;;;5.00;;
16117;SDS011;8163;50.118;5.342;2023-02-20T10:21:06;10.55;;;9.57;;
16117;SDS011;8163;50.118;5.342;2023-02-20T10:23:44;6.15;;;4.95;;
16117;SDS011;8163;50.118;5.342;2023-02-20T10:26:17;5.15;;;4.65;;
16117;SDS011;8163;50.118;5.342;2023-02-20T10:28:47;5.85;;;5.25;;
16117;SDS011;8163;50.118;5.342;2023-02-20T10:31:22;7.57;;;4.80;;
16117;SDS011;8163;50.118;5.342;2023-02-20T10:33:58;7.60;;;5.07;;
16117;SDS011;8163;50.118;5.342;2023-02-20T10:36:29;6.22;;;4.45;;
16117;SDS011;8163;50.118;5.342;2023-02-20T10:39:09;5.28;;;4.78;;
16117;SDS011;8163;50.118;5.342;2023-02-20T10:41:44;5.20;;;4.70;;
16117;SDS011;8163;50.118;5.342;2023-02-20T10:44:21;5.25;;;4.70;;
16117;SDS011;8163;50.118;5.342;2023-02-20T10:46:55;8.40;;;4.60;;
16117;SDS011;8163;50.118;5.342;2023-02-20T10:49:30;6.50;;;4.75;;
16117;SDS011;8163;50.118;5.342;2023-02-20T10:52:03;4.95;;;4.35;;
16117;SDS011;8163;50.118;5.342;2023-02-20T10:54:37;4.07;;;3.78;;
16117;SDS011;8163;50.118;5.342;2023-02-20T10:57:10;4.32;;;3.92;;
16117;SDS011;8163;50.118;5.342;2023-02-20T10:59:40;5.63;;;4.30;;
16117;SDS011;8163;50.118;5.342;2023-02-20T11:02:14;6.03;;;4.15;;
16117;SDS011;8163;50.118;5.342;2023-02-20T11:04:47;4.72;;;4.25;;
16117;SDS011;8163;50.118;5.342;2023-02-20T11:07:17;5.50;;;4.22;;
16117;SDS011;8163;50.118;5.342;2023-02-20T11:09:50;4.68;;;3.85;;
16117;SDS011;8163;50.118;5.342;2023-02-20T11:12:20;4.45;;;4.00;;
16117;SDS011;8163;50.118;5.342;2023-02-20T11:14:52;6.03;;;5.53;;
16117;SDS011;8163;50.118;5.342;2023-02-20T11:17:24;5.53;;;5.03;;
16117;SDS011;8163;50.118;5.342;2023-02-20T11:19:52;4.47;;;4.00;;
16117;SDS011;8163;50.118;5.342;2023-02-20T11:25:14;5.40;;;4.45;;
16117;SDS011;8163;50.118;5.342;2023-02-20T11:27:43;4.90;;;4.28;;
16117;SDS011;8163;50.118;5.342;2023-02-20T11:30:21;4.40;;;4.00;;
16117;SDS011;8163;50.118;5.342;2023-02-20T11:32:58;4.85;;;3.95;;
16117;SDS011;8163;50.118;5.342;2023-02-20T11:35:27;4.13;;;3.72;;
16117;SDS011;8163;50.118;5.342;2023-02-20T11:46:45;4.60;;;3.60;;
16117;SDS011;8163;50.118;5.342;2023-02-20T11:49:24;4.40;;;4.00;;
16117;SDS011;8163;50.118;5.342;2023-02-20T11:51:55;3.78;;;3.38;;
16117;SDS011;8163;50.118;5.342;2023-02-20T11:54:33;4.28;;;3.88;;
16117;SDS011;8163;50.118;5.342;2023-02-20T11:57:02;5.03;;;4.50;;
16117;SDS011;8163;50.118;5.342;2023-02-20T11:59:33;4.03;;;3.63;;
16117;SDS011;8163;50.118;5.342;2023-02-20T12:02:09;3.72;;;3.30;;
16117;SDS011;8163;50.118;5.342;2023-02-20T12:05:08;3.88;;;3.50;;
16117;SDS011;8163;50.118;5.342;2023-02-20T12:07:43;3.88;;;3.38;;
16117;SDS011;8163;50.118;5.342;2023-02-20T12:10:26;4.20;;;3.30;;
16117;SDS011;8163;50.118;5.342;2023-02-20T12:13:14;4.15;;;3.55;;
16117;SDS011;8163;50.118;5.342;2023-02-20T12:15:46;3.90;;;3.60;;
16117;SDS011;8163;50.118;5.342;2023-02-20T12:21:20;4.00;;;3.60;;
16117;SDS011;8163;50.118;5.342;2023-02-20T12:24:00;4.30;;;3.90;;
16117;SDS011;8163;50.118;5.342;2023-02-20T12:26:47;4.30;;;3.83;;
16117;SDS011;8163;50.118;5.342;2023-02-20T12:29:23;4.07;;;3.67;;
16117;SDS011;8163;50.118;5.342;2023-02-20T12:32:04;5.60;;;3.67;;
16117;SDS011;8163;50.118;5.342;2023-02-20T12:34:45;5.45;;;3.60;;
16117;SDS011;8163;50.118;5.342;2023-02-20T12:37:24;3.90;;;3.60;;
16117;SDS011;8163;50.118;5.342;2023-02-20T12:40:02;4.93;;;3.47;;
16117;SDS011;8163;50.118;5.342;2023-02-20T12:42:45;3.72;;;3.35;;
16117;SDS011;8163;50.118;5.342;2023-02-20T12:45:24;4.00;;;3.60;;
16117;SDS011;8163;50.118;5.342;2023-02-20T12:48:00;3.95;;;3.55;;
16117;SDS011;8163;50.118;5.342;2023-02-20T12:50:41;4.53;;;4.13;;
16117;SDS011;8163;50.118;5.342;2023-02-20T12:56:09;5.15;;;3.95;;
16117;SDS011;8163;50.118;5.342;2023-02-20T12:58:47;5.47;;;4.00;;
16117;SDS011;8163;50.118;5.342;2023-02-20T13:01:23;5.38;;;4.53;;
16117;SDS011;8163;50.118;5.342;2023-02-20T13:03:51;5.35;;;4.63;;
16117;SDS011;8163;50.118;5.342;2023-02-20T13:06:31;4.28;;;3.88;;
16117;SDS011;8163;50.118;5.342;2023-02-20T13:09:05;5.70;;;4.13;;
16117;SDS011;8163;50.118;5.342;2023-02-20T13:11:40;4.65;;;4.25;;
16117;SDS011;8163;50.118;5.342;2023-02-20T13:14:18;4.80;;;4.28;;
16117;SDS011;8163;50.118;5.342;2023-02-20T13:16:53;6.80;;;4.45;;
16117;SDS011;8163;50.118;5.342;2023-02-20T13:19:28;6.45;;;4.90;;
16117;SDS011;8163;50.118;5.342;2023-02-20T13:22:01;4.85;;;4.20;;
16117;SDS011;8163;50.118;5.342;2023-02-20T13:24:31;6.75;;;4.40;;
16117;SDS011;8163;50.118;5.342;2023-02-20T13:27:02;5.85;;;4.00;;
16117;SDS011;8163;50.118;5.342;2023-02-20T13:29:32;4.47;;;4.07;;
16117;SDS011;8163;50.118;5.342;2023-02-20T13:32:02;4.68;;;3.80;;
16117;SDS011;8163;50.118;5.342;2023-02-20T13:34:48;5.78;;;4.00;;
16117;SDS011;8163;50.118;5.342;2023-02-20T13:40:39;5.20;;;3.88;;
16117;SDS011;8163;50.118;5.342;2023-02-20T13:43:26;7.40;;;4.05;;
16117;SDS011;8163;50.118;5.342;2023-02-20T13:46:09;5.07;;;3.90;;
16117;SDS011;8163;50.118;5.342;2023-02-20T13:48:47;6.80;;;3.70;;
16117;SDS011;8163;50.118;5.342;2023-02-20T13:51:27;4.57;;;3.92;;
16117;SDS011;8163;50.118;5.342;2023-02-20T13:54:11;4.97;;;4.18;;
16117;SDS011;8163;50.118;5.342;2023-02-20T13:56:59;6.68;;;4.30;;
16117;SDS011;8163;50.118;5.342;2023-02-20T14:36:41;5.20;;;3.65;;
16117;SDS011;8163;50.118;5.342;2023-02-20T14:39:25;6.03;;;4.10;;
16117;SDS011;8163;50.118;5.342;2023-02-20T14:42:01;4.65;;;3.97;;
16117;SDS011;8163;50.118;5.342;2023-02-20T14:44:30;5.43;;;3.95;;
16117;SDS011;8163;50.118;5.342;2023-02-20T14:46:59;6.38;;;3.90;;
16117;SDS011;8163;50.118;5.342;2023-02-20T14:49:32;4.70;;;3.80;;
16117;SDS011;8163;50.118;5.342;2023-02-20T14:52:18;8.43;;;4.20;;
16117;SDS011;8163;50.118;5.342;2023-02-20T14:54:56;6.05;;;4.07;;
16117;SDS011;8163;50.118;5.342;2023-02-20T14:57:25;7.20;;;4.25;;
16117;SDS011;8163;50.118;5.342;2023-02-20T15:00:06;8.23;;;4.30;;
16117;SDS011;8163;50.118;5.342;2023-02-20T15:02:35;7.80;;;4.32;;
16117;SDS011;8163;50.118;5.342;2023-02-20T15:05:06;8.13;;;4.05;;
16117;SDS011;8163;50.118;5.342;2023-02-20T15:07:41;9.57;;;4.00;;
16117;SDS011;8163;50.118;5.342;2023-02-20T15:10:26;6.35;;;3.92;;
16117;SDS011;8163;50.118;5.342;2023-02-20T15:12:59;6.15;;;3.75;;
16117;SDS011;8163;50.118;5.342;2023-02-20T15:15:33;7.57;;;4.40;;
16117;SDS011;8163;50.118;5.342;2023-02-20T15:18:06;7.13;;;4.85;;
16117;SDS011;8163;50.118;5.342;2023-02-20T15:20:37;4.30;;;3.22;;
16117;SDS011;8163;50.118;5.342;2023-02-20T15:23:09;7.43;;;3.55;;
16117;SDS011;8163;50.118;5.342;2023-02-20T15:25:46;4.88;;;3.78;;
16117;SDS011;8163;50.118;5.342;2023-02-20T15:28:22;5.25;;;3.58;;
16117;SDS011;8163;50.118;5.342;2023-02-20T15:31:02;5.90;;;3.88;;
16117;SDS011;8163;50.118;5.342;2023-02-20T15:33:34;8.70;;;4.30;;
16117;SDS011;8163;50.118;5.342;2023-02-20T15:36:03;8.82;;;4.53;;
16117;SDS011;8163;50.118;5.342;2023-02-20T15:38:34;5.55;;;4.03;;
16117;SDS011;8163;50.118;5.342;2023-02-20T15:41:02;8.05;;;4.43;;
16117;SDS011;8163;50.118;5.342;2023-02-20T15:43:30;6.40;;;4.47;;
16117;SDS011;8163;50.118;5.342;2023-02-20T15:45:58;8.85;;;4.60;;
16117;SDS011;8163;50.118;5.342;2023-02-20T15:48:26;5.80;;;4.50;;
16117;SDS011;8163;50.118;5.342;2023-02-20T15:50:53;6.65;;;4.53;;
16117;SDS011;8163;50.118;5.342;2023-02-20T15:53:21;8.68;;;4.20;;
16117;SDS011;8163;50.118;5.342;2023-02-20T15:55:52;10.93;;;4.50;;
16117;SDS011;8163;50.118;5.342;2023-02-20T15:58:21;7.70;;;4.03;;
16117;SDS011;8163;50.118;5.342;2023-02-20T16:00:49;4.95;;;4.00;;
16117;SDS011;8163;50.118;5.342;2023-02-20T16:03:19;10.02;;;5.00;;
16117;SDS011;8163;50.118;5.342;2023-02-20T16:05:52;7.65;;;4.65;;
16117;SDS011;8163;50.118;5.342;2023-02-20T16:08:21;9.95;;;4.90;;
16117;SDS011;8163;50.118;5.342;2023-02-20T16:10:49;11.05;;;5.32;;
16117;SDS011;8163;50.118;5.342;2023-02-20T16:13:21;8.00;;;5.10;;
16117;SDS011;8163;50.118;5.342;2023-02-20T16:15:52;7.43;;;4.63;;
16117;SDS011;8163;50.118;5.342;2023-02-20T16:18:19;9.82;;;5.65;;
16117;SDS011;8163;50.118;5.342;2023-02-20T16:20:47;7.38;;;5.20;;
16117;SDS011;8163;50.118;5.342;2023-02-20T16:23:15;8.63;;;5.25;;
16117;SDS011;8163;50.118;5.342;2023-02-20T16:25:42;11.82;;;5.28;;
16117;SDS011;8163;50.118;5.342;2023-02-20T16:28:11;7.60;;;5.40;;